< < Back
Terminal Aerodrome Forecast


Current Version              Previous Versions:   1  2  3  4  5  6  7  8  9  

Terminal Aerodrome Forecast

569
FTUS44 KMRX 211439 AAB
TAFCHA
TAF AMD
KCHA 211439Z 2115/2212 03005KT P6SM OVC025
     FM211800 00000KT P6SM BKN040
     FM220300 00000KT P6SM OVC015=

Latest METAR

068
SAUS80 KWBC 211600 RRA
MTRCHA
METAR KCHA 211553Z 01007KT 10SM BKN015 OVC026 05/00 A3024 RMK AO2 SLP244
T00500000


USA.gov is the U.S. government's official web portal to all federal, state and local government web resources and services.